createdAt,value
2023-04-01T00:04:29.637Z,16.90
2023-04-01T00:10:32.097Z,14.80
2023-04-01T00:16:36.921Z,13.98
2023-04-01T00:22:39.492Z,12.85
2023-04-01T00:28:42.061Z,11.88
2023-04-01T00:34:45.678Z,10.85
2023-04-01T00:40:48.309Z,12.73
2023-04-01T00:46:51.394Z,12.15
2023-04-01T00:52:54.229Z,12.27
2023-04-01T01:05:01.752Z,11.98
2023-04-01T01:11:06.358Z,13.95
2023-04-01T01:17:32.849Z,13.32
2023-04-01T01:23:44.720Z,14.90
2023-04-01T01:29:56.424Z,11.65
2023-04-01T01:36:02.491Z,11.48
2023-04-01T01:42:09.686Z,11.05
2023-04-01T01:48:12.837Z,12.45
2023-04-01T01:54:16.719Z,10.85
2023-04-01T02:00:20.609Z,11.85
2023-04-01T02:06:26.754Z,10.77
2023-04-01T02:12:30.468Z,11.48
2023-04-01T02:18:34.513Z,10.70
2023-04-01T02:24:39.252Z,10.27
2023-04-01T02:30:44.243Z,12.05
2023-04-01T02:36:46.898Z,10.27
2023-04-01T02:42:49.247Z,11.60
2023-04-01T02:48:51.763Z,11.02
2023-04-01T02:54:54.173Z,10.40
2023-04-01T03:00:56.870Z,11.70
2023-04-01T03:06:59.346Z,11.23
2023-04-01T03:13:02.136Z,12.38
2023-04-01T03:25:09.000Z,13.68
2023-04-01T03:31:11.913Z,13.40
2023-04-01T03:37:22.035Z,12.30
2023-04-01T03:43:25.092Z,12.52
2023-04-01T03:49:27.860Z,13.13
2023-04-01T04:01:32.872Z,14.27
2023-04-01T04:13:42.062Z,13.63
2023-04-01T04:19:44.973Z,13.38
2023-04-01T04:26:00.996Z,14.23
2023-04-01T04:32:04.901Z,15.73
2023-04-01T04:38:07.639Z,16.08
2023-04-01T04:44:10.129Z,13.93
2023-04-01T04:50:13.223Z,15.63
2023-04-01T04:56:21.460Z,14.95
2023-04-01T05:02:39.808Z,13.83
2023-04-01T05:08:44.267Z,13.80
2023-04-01T05:14:46.638Z,14.18
2023-04-01T05:20:51.582Z,13.80
2023-04-01T05:26:55.831Z,14.25
2023-04-01T05:32:59.673Z,13.70
2023-04-01T05:39:02.592Z,14.10
2023-04-01T05:45:05.461Z,16.33
2023-04-01T05:51:42.736Z,14.75
2023-04-01T05:57:47.451Z,14.57
2023-04-01T06:03:49.912Z,16.10
2023-04-01T06:09:52.809Z,17.80
2023-04-01T06:16:18.067Z,16.77
2023-04-01T06:22:58.307Z,16.00
2023-04-01T06:29:04.938Z,16.67
2023-04-01T06:35:32.644Z,16.65
2023-04-01T06:41:41.857Z,15.30
2023-04-01T06:48:05.943Z,15.98
2023-04-01T06:54:43.629Z,16.20
2023-04-01T07:01:23.367Z,16.27
2023-04-01T07:07:51.859Z,14.70
2023-04-01T07:14:05.057Z,16.13
2023-04-01T07:20:17.513Z,17.08
2023-04-01T07:26:24.896Z,14.82
2023-04-01T07:33:00.741Z,15.98
2023-04-01T07:39:40.745Z,16.17
2023-04-01T07:46:22.669Z,14.65
2023-04-01T07:52:43.360Z,15.43
2023-04-01T07:59:07.918Z,14.32
2023-04-01T08:05:42.966Z,14.88
2023-04-01T08:12:07.688Z,15.75
2023-04-01T08:18:40.734Z,16.10
2023-04-01T08:24:48.143Z,15.30
2023-04-01T08:31:05.523Z,15.60
2023-04-01T08:37:15.558Z,15.45
2023-04-01T08:43:25.171Z,15.57
2023-04-01T08:49:57.936Z,14.63
2023-04-01T08:56:44.383Z,13.82
2023-04-01T09:03:17.588Z,13.63
2023-04-01T09:09:33.694Z,12.05
2023-04-01T09:15:59.292Z,12.32
2023-04-01T09:22:42.621Z,11.82
2023-04-01T09:29:04.017Z,13.88
2023-04-01T09:35:26.295Z,13.70
2023-04-01T09:41:48.263Z,16.30
2023-04-01T09:48:39.619Z,14.85
2023-04-01T09:55:21.108Z,20.48
2023-04-01T10:01:58.768Z,16.95
2023-04-01T10:08:33.584Z,14.73
2023-04-01T10:15:20.802Z,13.30
2023-04-01T10:21:35.383Z,12.68
2023-04-01T10:28:11.687Z,12.90
2023-04-01T10:35:03.530Z,12.73
2023-04-01T10:41:18.333Z,13.75
2023-04-01T10:48:16.772Z,14.23
2023-04-01T10:54:30.928Z,12.13
2023-04-01T11:01:19.020Z,11.57
2023-04-01T11:08:07.092Z,11.05
2023-04-01T11:14:38.053Z,12.38
2023-04-01T11:20:47.025Z,10.52
2023-04-01T11:26:55.925Z,9.88
2023-04-01T11:33:27.596Z,10.35
2023-04-01T11:39:49.168Z,8.05
2023-04-01T11:46:54.257Z,8.68
2023-04-01T11:53:35.718Z,10.20
2023-04-01T11:59:59.272Z,9.95
2023-04-01T12:06:18.057Z,6.65
2023-04-01T12:13:00.024Z,6.15
2023-04-01T12:19:20.982Z,6.93
2023-04-01T12:25:54.773Z,7.45
2023-04-01T12:32:36.373Z,8.43
2023-04-01T12:38:57.633Z,8.68
2023-04-01T12:45:15.623Z,6.80
2023-04-01T12:51:42.882Z,4.93
2023-04-01T12:58:03.646Z,5.18
2023-04-01T13:04:27.725Z,7.95
2023-04-01T13:10:59.656Z,7.32
2023-04-01T13:17:14.657Z,7.30
2023-04-01T13:23:28.977Z,7.47
2023-04-01T13:29:41.416Z,7.80
2023-04-01T13:36:02.387Z,6.95
2023-04-01T13:42:26.253Z,6.55
2023-04-01T13:48:28.820Z,6.00
2023-04-01T14:01:20.275Z,5.90
2023-04-01T14:07:54.257Z,5.97
2023-04-01T14:14:21.034Z,6.00
2023-04-01T14:20:39.569Z,2.33
2023-04-01T14:27:06.813Z,3.22
2023-04-01T14:33:28.028Z,3.40
2023-04-01T14:40:07.713Z,3.20
2023-04-01T14:46:13.064Z,3.40
2023-04-01T14:52:27.156Z,4.30
2023-04-01T14:58:44.093Z,3.75
2023-04-01T15:05:17.585Z,4.50
2023-04-01T15:11:47.876Z,5.00
2023-04-01T15:18:05.206Z,5.55
2023-04-01T15:24:28.075Z,5.95
2023-04-01T15:30:48.252Z,5.50
2023-04-01T15:37:29.031Z,6.55
2023-04-01T15:43:34.391Z,7.60
2023-04-01T15:49:43.540Z,8.73
2023-04-01T15:55:49.135Z,8.43
2023-04-01T16:02:08.987Z,8.20
2023-04-01T16:08:14.243Z,7.05
2023-04-01T16:14:28.600Z,7.57
2023-04-01T16:20:55.346Z,8.93
2023-04-01T16:27:13.083Z,9.80
2023-04-01T16:33:31.865Z,7.45
2023-04-01T16:39:45.134Z,6.88
2023-04-01T16:46:07.014Z,8.13
2023-04-01T16:52:12.282Z,7.13
2023-04-01T16:58:44.298Z,8.27
2023-04-01T17:04:48.392Z,9.38
2023-04-01T17:11:02.635Z,14.88
2023-04-01T17:17:26.819Z,13.32
2023-04-01T17:23:45.391Z,11.18
2023-04-01T17:30:01.790Z,9.88
2023-04-01T17:36:40.795Z,11.93
2023-04-01T17:43:07.301Z,13.00
2023-04-01T17:49:28.477Z,11.52
2023-04-01T17:55:39.568Z,12.95
2023-04-01T18:02:14.721Z,15.30
2023-04-01T18:08:19.181Z,11.32
2023-04-01T18:14:33.323Z,13.00
2023-04-01T18:20:38.453Z,12.32
2023-04-01T18:26:45.343Z,12.23
2023-04-01T18:33:04.201Z,12.35
2023-04-01T18:39:14.715Z,12.15
2023-04-01T18:45:24.805Z,12.98
2023-04-01T18:51:37.501Z,12.95
2023-04-01T18:57:54.400Z,9.95
2023-04-01T19:04:30.765Z,10.32
2023-04-01T19:10:46.985Z,9.25
2023-04-01T19:16:58.068Z,10.07
2023-04-01T19:23:25.898Z,7.20
2023-04-01T19:29:57.440Z,8.95
2023-04-01T19:36:27.966Z,8.52
2023-04-01T19:42:30.363Z,8.18
2023-04-01T19:48:46.898Z,6.53
2023-04-01T19:55:10.491Z,8.77
2023-04-01T20:07:54.134Z,7.93
2023-04-01T20:14:27.844Z,6.00
2023-04-01T20:20:32.112Z,6.38
2023-04-01T20:26:39.340Z,6.47
2023-04-01T20:32:59.690Z,6.13
2023-04-01T20:39:38.530Z,5.85
2023-04-01T20:45:56.794Z,5.45
2023-04-01T20:52:15.479Z,6.90
2023-04-01T20:58:45.864Z,6.82
2023-04-01T21:04:51.572Z,6.30
2023-04-01T21:11:07.403Z,6.60
2023-04-01T21:17:38.901Z,5.75
2023-04-01T21:23:59.742Z,5.65
2023-04-01T21:30:41.536Z,5.35
2023-04-01T21:37:15.529Z,5.25
2023-04-01T21:50:05.777Z,4.35
2023-04-01T21:56:32.934Z,4.70
2023-04-01T22:03:10.421Z,3.67
2023-04-01T22:09:39.401Z,4.32
2023-04-01T22:16:04.506Z,4.38
2023-04-01T22:22:19.266Z,4.80
2023-04-01T22:28:33.615Z,4.50
2023-04-01T22:34:51.079Z,5.20
2023-04-01T22:41:14.892Z,4.82
2023-04-01T22:47:27.717Z,5.30
2023-04-01T22:54:00.842Z,5.25
2023-04-01T23:00:18.331Z,4.93
2023-04-01T23:06:28.021Z,6.55
2023-04-01T23:12:31.809Z,5.82
2023-04-01T23:18:46.962Z,6.28
2023-04-01T23:24:56.716Z,4.10
2023-04-01T23:30:58.966Z,3.97
2023-04-01T23:37:10.157Z,5.75
2023-04-01T23:43:40.506Z,6.15
2023-04-01T23:50:13.816Z,7.97
2023-04-01T23:56:19.675Z,7.67
